createdAt,value
2023-03-24T00:01:56.263Z,98092.88
2023-03-24T00:04:25.129Z,98085.09
2023-03-24T00:06:52.576Z,98086.81
2023-03-24T00:09:19.913Z,98078.22
2023-03-24T00:11:47.273Z,98067.94
2023-03-24T00:14:14.149Z,98063.66
2023-03-24T00:16:43.132Z,98050.75
2023-03-24T00:19:13.586Z,98050.78
2023-03-24T00:21:42.135Z,98048.19
2023-03-24T00:24:10.086Z,98063.66
2023-03-24T00:26:39.177Z,98066.19
2023-03-24T00:29:08.067Z,98047.31
2023-03-24T00:31:40.125Z,98047.31
2023-03-24T00:34:08.962Z,98039.59
2023-03-24T00:36:36.883Z,98041.22
2023-03-24T00:39:06.369Z,98041.22
2023-03-24T00:41:33.811Z,98035.22
2023-03-24T00:44:03.604Z,98035.22
2023-03-24T00:46:30.780Z,98019.75
2023-03-24T00:49:05.887Z,98016.25
2023-03-24T00:51:38.814Z,98015.44
2023-03-24T00:54:09.435Z,98020.69
2023-03-24T00:56:40.691Z,98014.75
2023-03-24T00:59:10.258Z,98019.94
2023-03-24T01:01:41.169Z,98011.38
2023-03-24T01:04:08.595Z,98015.63
2023-03-24T01:06:39.432Z,97994.03
2023-03-24T01:09:07.443Z,97999.28
2023-03-24T01:11:40.334Z,98006.94
2023-03-24T01:14:08.799Z,98008.66
2023-03-24T01:16:36.352Z,98000.06
2023-03-24T01:19:04.337Z,97999.19
2023-03-24T01:21:31.867Z,97990.56
2023-03-24T01:23:58.744Z,98000.06
2023-03-24T01:26:25.532Z,98003.38
2023-03-24T01:28:52.365Z,98011.94
2023-03-24T01:31:19.357Z,98011.88
2023-03-24T01:33:46.243Z,98001.50
2023-03-24T01:36:13.168Z,98002.41
2023-03-24T01:38:40.145Z,98001.50
2023-03-24T01:41:07.464Z,97996.34
2023-03-24T01:43:35.992Z,97996.38
2023-03-24T01:46:18.776Z,97997.97
2023-03-24T01:48:55.304Z,97991.13
2023-03-24T01:51:35.667Z,97992.81
2023-03-24T01:54:18.670Z,97983.44
2023-03-24T01:56:57.057Z,97987.75
2023-03-24T01:59:27.444Z,97986.97
2023-03-24T02:02:03.006Z,97983.53
2023-03-24T02:04:34.660Z,97974.94
2023-03-24T02:07:28.496Z,97983.47
2023-03-24T02:09:55.465Z,97967.22
2023-03-24T02:12:22.358Z,97962.03
2023-03-24T02:14:50.025Z,97970.56
2023-03-24T02:17:48.633Z,97967.03
2023-03-24T02:20:40.307Z,97960.00
2023-03-24T02:23:32.047Z,97962.53
2023-03-24T02:26:20.908Z,97960.63
2023-03-24T02:29:27.849Z,97944.44
2023-03-24T02:32:22.971Z,97946.94
2023-03-24T02:35:12.654Z,97942.50
2023-03-24T02:38:24.001Z,97939.84
2023-03-24T02:41:05.082Z,97943.25
2023-03-24T02:43:39.760Z,97926.97
2023-03-24T02:46:23.843Z,97937.09
2023-03-24T02:49:16.358Z,97924.06
2023-03-24T02:51:50.366Z,97932.81
2023-03-24T02:54:56.312Z,97927.53
2023-03-24T02:57:36.226Z,97923.28
2023-03-24T03:00:21.440Z,97914.66
2023-03-24T03:02:56.120Z,97917.34
2023-03-24T03:05:34.584Z,97907.91
2023-03-24T03:08:06.123Z,97909.56
2023-03-24T03:10:39.276Z,97902.63
2023-03-24T03:13:14.770Z,97906.06
2023-03-24T03:15:46.583Z,97905.22
2023-03-24T03:19:00.036Z,97906.06
2023-03-24T03:21:32.781Z,97898.34
2023-03-24T03:24:07.138Z,97896.63
2023-03-24T03:26:34.693Z,97886.31
2023-03-24T03:29:19.053Z,97890.47
2023-03-24T03:32:07.990Z,97881.13
2023-03-24T03:34:37.929Z,97889.66
2023-03-24T03:37:22.744Z,97882.69
2023-03-24T03:39:58.920Z,97892.25
2023-03-24T03:42:25.926Z,97889.69
2023-03-24T03:44:53.406Z,97895.63
2023-03-24T03:47:23.072Z,97893.06
2023-03-24T03:49:51.058Z,97893.22
2023-03-24T03:52:18.416Z,97897.88
2023-03-24T03:54:45.790Z,97890.38
2023-03-24T03:57:13.883Z,97889.72
2023-03-24T03:59:41.050Z,97888.16
2023-03-24T04:02:13.834Z,97883.94
2023-03-24T04:05:03.230Z,97885.03
2023-03-24T04:07:40.063Z,97882.34
2023-03-24T04:10:25.096Z,97888.66
2023-03-24T04:13:15.740Z,97887.84
2023-03-24T04:15:58.624Z,97889.59
2023-03-24T04:18:47.249Z,97889.66
2023-03-24T04:21:33.652Z,97882.09
2023-03-24T04:24:06.746Z,97883.19
2023-03-24T04:26:36.231Z,97879.97
2023-03-24T04:29:09.220Z,97876.59
2023-03-24T04:31:49.378Z,97880.16
2023-03-24T04:34:29.351Z,97870.78
2023-03-24T04:37:08.342Z,97874.34
2023-03-24T04:39:39.273Z,97869.41
2023-03-24T04:42:10.616Z,97864.31
2023-03-24T04:44:37.770Z,97864.44
2023-03-24T04:47:05.948Z,97861.88
2023-03-24T04:49:32.732Z,97864.53
2023-03-24T04:51:59.553Z,97866.28
2023-03-24T04:54:29.866Z,97862.88
2023-03-24T04:57:02.003Z,97858.56
2023-03-24T04:59:30.505Z,97862.91
2023-03-24T05:01:57.464Z,97864.66
2023-03-24T05:04:26.181Z,97864.66
2023-03-24T05:06:53.125Z,97861.28
2023-03-24T05:09:21.895Z,97863.00
2023-03-24T05:11:49.679Z,97863.00
2023-03-24T05:14:17.101Z,97860.47
2023-03-24T05:16:44.042Z,97863.06
2023-03-24T05:19:11.104Z,97860.53
2023-03-24T05:21:38.274Z,97873.44
2023-03-24T05:24:06.836Z,97868.34
2023-03-24T05:26:34.098Z,97871.75
2023-03-24T05:29:01.023Z,97871.75
2023-03-24T05:31:27.949Z,97880.38
2023-03-24T05:33:55.664Z,97870.09
2023-03-24T05:36:22.516Z,97869.28
2023-03-24T05:38:49.484Z,97875.25
2023-03-24T05:41:16.295Z,97873.56
2023-03-24T05:43:43.119Z,97863.25
2023-03-24T05:46:10.036Z,97873.50
2023-03-24T05:48:36.760Z,97876.06
2023-03-24T05:51:03.687Z,97864.94
2023-03-24T05:53:31.164Z,97863.19
2023-03-24T05:55:58.737Z,97868.34
2023-03-24T05:58:25.810Z,97871.72
2023-03-24T06:00:54.590Z,97863.16
2023-03-24T06:03:21.636Z,97864.81
2023-03-24T06:05:49.451Z,97863.06
2023-03-24T06:08:17.306Z,97870.78
2023-03-24T06:10:44.432Z,97868.22
2023-03-24T06:13:11.404Z,97869.13
2023-03-24T06:15:42.883Z,97859.63
2023-03-24T06:18:09.993Z,97857.88
2023-03-24T06:20:36.991Z,97859.63
2023-03-24T06:23:03.887Z,97864.81
2023-03-24T06:25:30.708Z,97861.38
2023-03-24T06:28:04.044Z,97863.16
2023-03-24T06:30:31.073Z,97855.44
2023-03-24T06:32:58.362Z,97858.88
2023-03-24T06:35:25.247Z,97863.19
2023-03-24T06:37:52.141Z,97858.03
2023-03-24T06:40:19.786Z,97855.44
2023-03-24T06:42:46.642Z,97864.81
2023-03-24T06:45:13.467Z,97854.53
2023-03-24T06:47:40.831Z,97859.69
2023-03-24T06:50:08.058Z,97857.09
2023-03-24T06:52:35.743Z,97855.28
2023-03-24T06:55:03.036Z,97857.84
2023-03-24T06:57:30.406Z,97850.94
2023-03-24T06:59:57.293Z,97858.66
2023-03-24T07:02:24.272Z,97851.75
2023-03-24T07:04:54.162Z,97855.19
2023-03-24T07:07:53.372Z,97857.72
2023-03-24T07:10:09.695Z,97855.97
2023-03-24T07:12:36.731Z,97854.28
2023-03-24T07:15:04.674Z,97853.41
2023-03-24T07:17:31.721Z,97855.97
2023-03-24T07:19:58.829Z,97855.16
2023-03-24T07:22:25.928Z,97861.13
2023-03-24T07:24:54.102Z,97854.28
2023-03-24T07:27:21.400Z,97850.81
2023-03-24T07:29:48.382Z,97862.84
2023-03-24T07:32:15.488Z,97854.22
2023-03-24T07:34:43.984Z,97858.53
2023-03-24T07:37:11.398Z,97862.78
2023-03-24T07:39:38.421Z,97865.44
2023-03-24T07:42:06.121Z,97868.84
2023-03-24T07:44:33.086Z,97868.00
2023-03-24T07:46:59.945Z,97871.41
2023-03-24T07:49:27.330Z,97871.50
2023-03-24T07:51:54.264Z,97881.78
2023-03-24T07:54:21.790Z,97885.19
2023-03-24T07:56:48.865Z,97875.69
2023-03-24T07:59:17.339Z,97883.38
2023-03-24T08:01:44.603Z,97880.75
2023-03-24T08:04:14.247Z,97885.03
2023-03-24T08:06:44.190Z,97874.72
2023-03-24T08:09:11.962Z,97883.28
2023-03-24T08:11:39.405Z,97890.13
2023-03-24T08:14:06.552Z,97888.41
2023-03-24T08:16:33.556Z,97884.13
2023-03-24T08:19:00.647Z,97889.25
2023-03-24T08:21:27.686Z,97890.97
2023-03-24T08:23:54.547Z,97899.53
2023-03-24T08:26:22.671Z,97909.84
2023-03-24T08:28:49.715Z,97894.38
2023-03-24T08:31:16.709Z,97885.75
2023-03-24T08:33:43.751Z,97887.47
2023-03-24T08:36:10.882Z,97889.13
2023-03-24T08:38:39.004Z,97890.81
2023-03-24T08:41:07.246Z,97885.66
2023-03-24T08:43:36.283Z,97882.97
2023-03-24T08:46:03.521Z,97889.84
2023-03-24T08:48:31.140Z,97902.69
2023-03-24T08:50:57.969Z,97894.88
2023-03-24T08:53:24.811Z,97894.03
2023-03-24T08:58:31.966Z,97899.16
2023-03-24T09:00:58.864Z,97899.16
2023-03-24T09:03:26.352Z,97912.88
2023-03-24T09:05:59.794Z,97910.34
2023-03-24T09:08:28.181Z,97893.06
2023-03-24T09:10:55.026Z,97906.00
2023-03-24T09:13:22.242Z,97907.69
2023-03-24T09:15:54.736Z,97918.84
2023-03-24T09:18:22.276Z,97919.66
2023-03-24T09:20:50.397Z,97926.50
2023-03-24T09:23:17.605Z,97925.63
2023-03-24T09:25:44.878Z,97923.97
2023-03-24T09:28:12.043Z,97917.16
2023-03-24T09:30:38.903Z,97932.59
2023-03-24T09:33:06.343Z,97928.31
2023-03-24T09:35:33.373Z,97933.47
2023-03-24T09:38:00.557Z,97918.88
2023-03-24T09:40:33.252Z,97928.25
2023-03-24T09:43:24.146Z,97931.47
2023-03-24T09:45:54.705Z,97933.97
2023-03-24T09:48:47.211Z,97933.88
2023-03-24T09:51:22.772Z,97938.19
2023-03-24T09:54:04.850Z,97956.25
2023-03-24T09:56:32.664Z,97946.81
2023-03-24T09:59:06.200Z,97942.63
2023-03-24T10:01:36.209Z,97940.16
2023-03-24T10:04:05.108Z,97937.59
2023-03-24T10:06:41.844Z,97947.91
2023-03-24T10:09:28.570Z,97943.59
2023-03-24T10:12:26.309Z,97959.88
2023-03-24T10:15:09.596Z,97946.19
2023-03-24T10:17:58.249Z,97954.81
2023-03-24T10:20:38.333Z,97966.00
2023-03-24T10:23:29.678Z,97949.66
2023-03-24T10:26:28.517Z,97955.56
2023-03-24T10:29:22.609Z,97955.50
2023-03-24T10:31:58.039Z,97976.97
2023-03-24T10:34:30.479Z,97958.09
2023-03-24T10:36:59.615Z,97954.56
2023-03-24T10:39:37.871Z,97947.69
2023-03-24T10:42:21.816Z,97954.38
2023-03-24T10:44:51.320Z,97953.53
2023-03-24T10:47:32.545Z,97944.75
2023-03-24T10:50:12.752Z,97954.03
2023-03-24T10:52:45.484Z,97965.22
2023-03-24T10:55:19.341Z,97967.81
2023-03-24T10:57:56.890Z,97972.16
2023-03-24T11:00:32.305Z,97970.41
2023-03-24T11:03:21.478Z,97984.97
2023-03-24T11:05:48.764Z,97972.91
2023-03-24T11:08:34.076Z,97980.50
2023-03-24T11:11:00.952Z,97981.47
2023-03-24T11:13:32.452Z,97977.97
2023-03-24T11:16:14.350Z,98004.41
2023-03-24T11:18:59.227Z,97979.78
2023-03-24T11:21:28.658Z,97973.41
2023-03-24T11:23:59.695Z,97985.34
2023-03-24T11:26:35.926Z,97976.78
2023-03-24T11:29:22.340Z,97971.53
2023-03-24T11:31:58.525Z,97986.84
2023-03-24T11:34:46.422Z,97993.34
2023-03-24T11:37:29.614Z,98008.81
2023-03-24T11:40:07.186Z,97981.44
2023-03-24T11:42:34.128Z,97987.41
2023-03-24T11:45:03.848Z,97984.03
2023-03-24T11:47:33.263Z,97983.13
2023-03-24T11:50:12.237Z,97998.66
2023-03-24T11:52:55.054Z,98004.50
2023-03-24T11:55:51.033Z,97989.97
2023-03-24T11:58:40.563Z,98001.88
2023-03-24T12:01:33.439Z,98005.34
2023-03-24T12:04:29.420Z,98016.44
2023-03-24T12:07:08.025Z,98022.75
2023-03-24T12:09:53.688Z,98014.31
2023-03-24T12:12:44.785Z,98011.75
2023-03-24T12:15:28.965Z,98022.84
2023-03-24T12:18:25.472Z,98019.41
2023-03-24T12:21:37.548Z,98026.25
2023-03-24T12:24:10.071Z,98028.91
2023-03-24T12:26:39.292Z,98036.56
2023-03-24T12:29:06.336Z,98035.53
2023-03-24T12:31:36.038Z,98050.41
2023-03-24T12:34:27.827Z,98050.88
2023-03-24T12:37:14.695Z,98040.81
2023-03-24T12:40:19.561Z,98033.97
2023-03-24T12:42:47.052Z,98038.91
2023-03-24T12:45:29.130Z,98044.72
2023-03-24T12:48:05.095Z,98035.91
2023-03-24T12:50:34.700Z,98042.53
2023-03-24T12:53:34.574Z,98039.13
2023-03-24T12:56:10.103Z,98041.84
2023-03-24T12:58:39.861Z,98044.72
2023-03-24T13:01:35.051Z,98051.06
2023-03-24T13:04:01.944Z,98049.03
2023-03-24T13:06:47.407Z,98036.38
2023-03-24T13:09:40.265Z,98053.94
2023-03-24T13:12:30.362Z,98047.06
2023-03-24T13:15:12.410Z,98057.53
2023-03-24T13:18:10.422Z,98053.16
2023-03-24T13:20:54.429Z,98044.41
2023-03-24T13:23:46.248Z,98043.44
2023-03-24T13:26:36.763Z,98049.16
2023-03-24T13:29:03.894Z,98046.56
2023-03-24T13:31:54.088Z,98054.06
2023-03-24T13:34:28.748Z,98051.63
2023-03-24T13:37:02.691Z,98059.38
2023-03-24T13:39:31.466Z,98065.78
2023-03-24T13:41:59.496Z,98057.13
2023-03-24T13:44:49.792Z,98042.72
2023-03-24T13:47:18.410Z,98050.56
2023-03-24T13:50:13.476Z,98046.53
2023-03-24T13:52:46.758Z,98052.44
2023-03-24T13:55:26.187Z,98062.50
2023-03-24T13:58:13.212Z,98060.28
2023-03-24T14:01:05.492Z,98055.94
2023-03-24T14:03:36.831Z,98066.59
2023-03-24T14:06:07.568Z,98058.06
2023-03-24T14:08:43.682Z,98073.13
2023-03-24T14:11:41.452Z,98068.69
2023-03-24T14:14:20.308Z,98075.97
2023-03-24T14:17:05.318Z,98089.13
2023-03-24T14:19:39.428Z,98090.44
2023-03-24T14:22:11.937Z,98090.66
2023-03-24T14:24:40.431Z,98108.31
2023-03-24T14:27:35.056Z,98089.41
2023-03-24T14:30:11.290Z,98117.16
2023-03-24T14:32:46.562Z,98090.47
2023-03-24T14:35:34.482Z,98101.75
2023-03-24T14:38:16.376Z,98130.25
2023-03-24T14:40:52.779Z,98108.75
2023-03-24T14:43:26.051Z,98122.69
2023-03-24T14:46:13.584Z,98105.38
2023-03-24T14:48:51.655Z,98099.28
2023-03-24T14:51:29.001Z,98108.94
2023-03-24T14:53:59.574Z,98102.00
2023-03-24T14:56:35.039Z,98118.34
2023-03-24T14:59:08.724Z,98124.44
2023-03-24T15:01:36.195Z,98115.19
2023-03-24T15:04:07.190Z,98113.41
2023-03-24T15:06:44.720Z,98137.50
2023-03-24T15:09:11.652Z,98135.06
2023-03-24T15:11:40.556Z,98142.00
2023-03-24T15:14:22.795Z,98152.34
2023-03-24T15:17:03.049Z,98159.28
2023-03-24T15:19:31.472Z,98143.78
2023-03-24T15:22:11.706Z,98152.38
2023-03-24T15:24:42.321Z,98167.09
2023-03-24T15:27:15.570Z,98151.47
2023-03-24T15:29:44.233Z,98185.13
2023-03-24T15:32:19.248Z,98178.38
2023-03-24T15:34:52.063Z,98153.44
2023-03-24T15:37:34.919Z,98159.44
2023-03-24T15:40:15.109Z,98158.56
2023-03-24T15:42:46.270Z,98171.66
2023-03-24T15:45:28.865Z,98160.19
2023-03-24T15:47:56.954Z,98157.88
2023-03-24T15:50:34.519Z,98169.06
2023-03-24T15:53:19.586Z,98165.72
2023-03-24T15:55:46.480Z,98180.44
2023-03-24T15:58:28.523Z,98183.00
2023-03-24T16:00:58.024Z,98183.88
2023-03-24T16:03:26.563Z,98201.28
2023-03-24T16:05:56.150Z,98204.72
2023-03-24T16:08:31.698Z,98193.53
2023-03-24T16:11:01.529Z,98196.16
2023-03-24T16:13:28.726Z,98197.88
2023-03-24T16:16:00.125Z,98204.72
2023-03-24T16:18:33.251Z,98210.81
2023-03-24T16:21:13.628Z,98204.78
2023-03-24T16:23:42.416Z,98198.81
2023-03-24T16:26:27.417Z,98222.78
2023-03-24T16:28:57.007Z,98212.63
2023-03-24T16:31:30.720Z,98215.25
2023-03-24T16:33:58.269Z,98216.09
2023-03-24T16:36:28.459Z,98219.59
2023-03-24T16:38:57.798Z,98242.84
2023-03-24T16:41:25.510Z,98229.09
2023-03-24T16:43:53.295Z,98247.97
2023-03-24T16:46:26.407Z,98238.47
2023-03-24T16:48:53.750Z,98243.75
2023-03-24T16:51:20.636Z,98248.94
2023-03-24T16:53:48.126Z,98241.19
2023-03-24T16:56:18.065Z,98244.59
2023-03-24T16:58:48.057Z,98244.59
2023-03-24T17:01:39.727Z,98234.13
2023-03-24T17:04:16.346Z,98234.94
2023-03-24T17:06:53.532Z,98246.06
2023-03-24T17:09:21.032Z,98247.78
2023-03-24T17:11:51.578Z,98242.59
2023-03-24T17:14:18.734Z,98243.50
2023-03-24T17:16:49.162Z,98240.09
2023-03-24T17:19:18.946Z,98245.41
2023-03-24T17:22:11.236Z,98244.59
2023-03-24T17:24:41.771Z,98258.28
2023-03-24T17:27:13.815Z,98246.34
2023-03-24T17:29:40.428Z,98257.66
2023-03-24T17:32:07.094Z,98250.75
2023-03-24T17:34:33.955Z,98254.22
2023-03-24T17:37:00.887Z,98258.56
2023-03-24T17:39:27.468Z,98269.78
2023-03-24T17:41:57.627Z,98271.56
2023-03-24T17:44:24.352Z,98273.28
2023-03-24T17:46:51.382Z,98276.09
2023-03-24T17:49:18.122Z,98287.41
2023-03-24T17:51:44.843Z,98287.47
2023-03-24T17:54:12.290Z,98297.06
2023-03-24T17:56:39.212Z,98288.53
2023-03-24T17:59:05.966Z,98292.03
2023-03-24T18:01:35.316Z,98297.25
2023-03-24T18:04:02.052Z,98299.03
2023-03-24T18:06:30.753Z,98290.50
2023-03-24T18:08:57.859Z,98293.13
2023-03-24T18:11:24.377Z,98289.84
2023-03-24T18:13:52.059Z,98291.50
2023-03-24T18:16:21.866Z,98295.88
2023-03-24T18:18:49.274Z,98300.16
2023-03-24T18:21:16.191Z,98293.38
2023-03-24T18:23:42.889Z,98301.09
2023-03-24T18:26:09.572Z,98298.53
2023-03-24T18:28:37.570Z,98299.41
2023-03-24T18:31:10.506Z,98302.88
2023-03-24T18:33:37.143Z,98298.53
2023-03-24T18:36:04.602Z,98303.72
2023-03-24T18:38:31.800Z,98303.72
2023-03-24T18:40:58.382Z,98306.28
2023-03-24T18:43:25.287Z,98304.56
2023-03-24T18:45:52.249Z,98302.09
2023-03-24T18:48:19.463Z,98291.91
2023-03-24T18:50:47.831Z,98301.38
2023-03-24T18:53:14.870Z,98303.06
2023-03-24T18:55:46.700Z,98307.38
2023-03-24T18:58:15.474Z,98300.50
2023-03-24T19:00:42.985Z,98301.44
2023-03-24T19:03:10.238Z,98296.38
2023-03-24T19:05:37.279Z,98291.22
2023-03-24T19:08:07.520Z,98297.22
2023-03-24T19:10:38.109Z,98298.88
2023-03-24T19:13:05.989Z,98298.00
2023-03-24T19:15:35.507Z,98299.75
2023-03-24T19:18:03.713Z,98300.69
2023-03-24T19:20:30.743Z,98293.91
2023-03-24T19:22:57.348Z,98303.44
2023-03-24T19:25:24.747Z,98305.28
2023-03-24T19:27:51.945Z,98295.03
2023-03-24T19:30:18.680Z,98292.53
2023-03-24T19:32:46.742Z,98295.13
2023-03-24T19:35:13.534Z,98293.38
2023-03-24T19:37:40.645Z,98296.78
2023-03-24T19:40:11.885Z,98293.34
2023-03-24T19:42:41.796Z,98295.09
2023-03-24T19:45:08.964Z,98291.69
2023-03-24T19:47:35.632Z,98294.25
2023-03-24T19:50:03.364Z,98284.91
2023-03-24T19:52:30.249Z,98295.25
2023-03-24T19:54:56.891Z,98289.25
2023-03-24T19:57:24.086Z,98285.00
2023-03-24T19:59:51.111Z,98282.44
2023-03-24T20:02:18.865Z,98291.06
2023-03-24T20:04:45.838Z,98281.66
2023-03-24T20:07:12.546Z,98289.41
2023-03-24T20:09:39.119Z,98287.75
2023-03-24T20:12:06.114Z,98286.91
2023-03-24T20:14:33.751Z,98285.19
2023-03-24T20:17:00.813Z,98280.06
2023-03-24T20:19:27.665Z,98275.81
2023-03-24T20:21:54.363Z,98285.28
2023-03-24T20:24:21.123Z,98280.16
2023-03-24T20:26:48.498Z,98275.88
2023-03-24T20:29:15.425Z,98276.75
2023-03-24T20:31:42.988Z,98269.91
2023-03-24T20:34:10.861Z,98271.69
2023-03-24T20:36:38.532Z,98275.16
2023-03-24T20:39:05.955Z,98273.44
2023-03-24T20:41:32.947Z,98269.16
2023-03-24T20:43:59.705Z,98266.59
2023-03-24T20:46:26.322Z,98264.88
2023-03-24T20:48:53.056Z,98269.19
2023-03-24T20:51:19.934Z,98249.53
2023-03-24T20:53:49.781Z,98252.97
2023-03-24T20:56:16.946Z,98251.28
2023-03-24T20:58:44.711Z,98246.16
2023-03-24T21:01:22.347Z,98248.75
2023-03-24T21:03:50.409Z,98253.91
2023-03-24T21:06:17.392Z,98241.91
2023-03-24T21:08:45.230Z,98243.59
2023-03-24T21:11:12.064Z,98237.59
2023-03-24T21:13:38.962Z,98237.66
2023-03-24T21:16:08.088Z,98238.50
2023-03-24T21:18:36.117Z,98231.63
2023-03-24T21:21:05.415Z,98241.00
2023-03-24T21:23:34.257Z,98239.31
2023-03-24T21:26:01.603Z,98246.16
2023-03-24T21:28:30.420Z,98235.84
2023-03-24T21:30:58.208Z,98241.00
2023-03-24T21:33:24.830Z,98240.16
2023-03-24T21:35:51.904Z,98247.81
2023-03-24T21:38:18.836Z,98233.25
2023-03-24T21:40:46.497Z,98234.09
2023-03-24T21:43:14.857Z,98235.00
2023-03-24T21:45:46.350Z,98230.72
2023-03-24T21:48:14.125Z,98227.31
2023-03-24T21:50:42.755Z,98226.41
2023-03-24T21:53:15.549Z,98226.44
2023-03-24T21:55:52.637Z,98225.56
2023-03-24T21:58:19.617Z,98237.53
2023-03-24T22:00:46.838Z,98235.00
2023-03-24T22:03:13.611Z,98239.22
2023-03-24T22:05:40.450Z,98233.28
2023-03-24T22:08:07.240Z,98237.56
2023-03-24T22:10:37.134Z,98233.28
2023-03-24T22:13:04.265Z,98232.38
2023-03-24T22:15:32.512Z,98232.44
2023-03-24T22:17:59.975Z,98231.59
2023-03-24T22:20:28.274Z,98220.44
2023-03-24T22:22:54.936Z,98212.78
2023-03-24T22:25:21.605Z,98211.06
2023-03-24T22:27:50.014Z,98215.34
2023-03-24T22:30:18.138Z,98207.59
2023-03-24T22:32:44.734Z,98199.00
2023-03-24T22:35:11.350Z,98193.88
2023-03-24T22:37:37.859Z,98194.72
2023-03-24T22:40:05.762Z,98201.59
2023-03-24T22:42:32.355Z,98195.63
2023-03-24T22:44:58.917Z,98195.63
2023-03-24T22:47:25.672Z,98196.53
2023-03-24T22:49:52.287Z,98203.44
2023-03-24T22:52:18.857Z,98201.75
2023-03-24T22:54:45.455Z,98189.81
2023-03-24T22:57:12.160Z,98182.06
2023-03-24T22:59:38.780Z,98184.66
2023-03-24T23:02:10.091Z,98182.97
2023-03-24T23:04:37.237Z,98188.16
2023-03-24T23:07:05.269Z,98185.56
2023-03-24T23:09:31.871Z,98187.31
2023-03-24T23:11:58.456Z,98191.63
2023-03-24T23:14:25.556Z,98186.50
2023-03-24T23:16:52.459Z,98188.22
2023-03-24T23:19:19.505Z,98180.56
2023-03-24T23:21:46.028Z,98186.56
2023-03-24T23:24:12.592Z,98193.38
2023-03-24T23:26:39.112Z,98186.56
2023-03-24T23:29:05.855Z,98180.56
2023-03-24T23:31:32.440Z,98196.84
2023-03-24T23:34:00.220Z,98195.16
2023-03-24T23:36:28.273Z,98186.63
2023-03-24T23:38:55.772Z,98190.88
2023-03-24T23:41:22.455Z,98190.03
2023-03-24T23:43:50.162Z,98183.22
2023-03-24T23:46:17.321Z,98186.69
2023-03-24T23:48:43.974Z,98186.69
2023-03-24T23:51:10.560Z,98183.28
2023-03-24T23:53:37.529Z,98176.44
2023-03-24T23:56:08.859Z,98169.59
2023-03-24T23:58:37.081Z,98163.63
